createdAt,value
2023-04-11T00:00:02.876Z,2.6
2023-04-11T00:02:04.204Z,2.9
2023-04-11T00:04:04.835Z,2.3
2023-04-11T00:06:04.426Z,2.6
2023-04-11T00:08:03.543Z,2.6
2023-04-11T00:10:04.956Z,3.0
2023-04-11T00:12:04.112Z,2.4
2023-04-11T00:14:04.988Z,2.4
2023-04-11T00:16:03.170Z,2.4
2023-04-11T00:18:03.494Z,2.6
2023-04-11T00:20:07.368Z,2.3
2023-04-11T00:22:04.414Z,2.9
2023-04-11T00:24:03.371Z,2.3
2023-04-11T00:26:02.877Z,2.2
2023-04-11T00:28:03.772Z,2.4
2023-04-11T00:30:02.861Z,2.5
2023-04-11T00:32:04.513Z,2.5
2023-04-11T00:34:02.737Z,3.0
2023-04-11T00:36:02.638Z,2.4
2023-04-11T00:38:03.398Z,2.6
2023-04-11T00:40:05.178Z,2.4
2023-04-11T00:42:07.331Z,2.1
2023-04-11T00:44:02.782Z,2.7
2023-04-11T00:46:03.652Z,2.6
2023-04-11T00:48:02.775Z,2.1
2023-04-11T00:50:03.947Z,2.2
2023-04-11T00:52:03.615Z,2.1
2023-04-11T00:54:03.965Z,2.6
2023-04-11T00:56:03.041Z,2.4
2023-04-11T00:58:03.353Z,2.6
2023-04-11T01:00:03.412Z,2.5
2023-04-11T01:02:03.339Z,2.6
2023-04-11T01:04:02.968Z,2.7
2023-04-11T01:06:04.568Z,2.7
2023-04-11T01:08:03.411Z,2.7
2023-04-11T01:10:05.374Z,3.5
2023-04-11T01:12:04.232Z,2.9
2023-04-11T01:14:02.900Z,2.8
2023-04-11T01:16:03.662Z,3.0
2023-04-11T01:18:03.000Z,2.8
2023-04-11T01:20:06.918Z,4.1
2023-04-11T01:22:03.947Z,3.0
2023-04-11T01:24:03.226Z,3.5
2023-04-11T01:26:02.741Z,3.4
2023-04-11T01:28:02.903Z,3.5
2023-04-11T01:30:02.889Z,3.5
2023-04-11T01:32:02.865Z,3.4
2023-04-11T01:34:04.036Z,2.9
2023-04-11T01:36:04.395Z,2.9
2023-04-11T01:38:03.210Z,3.1
2023-04-11T01:40:04.885Z,3.2
2023-04-11T01:42:04.286Z,3.1
2023-04-11T01:44:03.777Z,2.3
2023-04-11T01:46:02.875Z,2.0
2023-04-11T01:48:07.253Z,1.8
2023-04-11T01:50:02.696Z,2.1
2023-04-11T01:52:02.972Z,1.9
2023-04-11T01:54:02.718Z,2.5
2023-04-11T01:56:04.086Z,2.5
2023-04-11T01:58:03.124Z,2.2
2023-04-11T02:00:05.422Z,2.0
2023-04-11T02:02:02.788Z,1.9
2023-04-11T02:04:02.795Z,2.0
2023-04-11T02:06:03.643Z,2.0
2023-04-11T02:08:03.609Z,1.8
2023-04-11T02:10:02.483Z,1.6
2023-04-11T02:12:03.597Z,1.4
2023-04-11T02:14:02.806Z,1.3
2023-04-11T02:16:09.015Z,1.3
2023-04-11T02:18:02.620Z,1.3
2023-04-11T02:20:06.460Z,1.4
2023-04-11T02:22:03.206Z,1.1
2023-04-11T02:24:02.650Z,1.5
2023-04-11T02:26:04.058Z,1.4
2023-04-11T02:28:04.628Z,1.3
2023-04-11T02:30:05.309Z,1.1
2023-04-11T02:32:03.220Z,1.2
2023-04-11T02:34:02.483Z,1.1
2023-04-11T02:36:02.539Z,1.2
2023-04-11T02:38:02.608Z,1.2
2023-04-11T02:40:05.000Z,1.2
2023-04-11T02:42:02.603Z,1.1
2023-04-11T02:44:02.992Z,1.2
2023-04-11T02:46:12.233Z,1.3
2023-04-11T02:48:02.756Z,1.1
2023-04-11T02:50:02.575Z,1.0
2023-04-11T02:52:04.277Z,1.3
2023-04-11T02:54:02.535Z,1.2
2023-04-11T02:56:03.110Z,1.4
2023-04-11T02:58:02.528Z,1.3
2023-04-11T03:00:06.370Z,1.3
2023-04-11T03:02:02.744Z,1.4
2023-04-11T03:04:03.596Z,1.3
2023-04-11T03:06:02.477Z,1.4
2023-04-11T03:08:03.756Z,1.5
2023-04-11T03:10:03.164Z,1.5
2023-04-11T03:12:03.143Z,1.6
2023-04-11T03:14:02.939Z,1.5
2023-04-11T03:16:03.962Z,1.6
2023-04-11T03:18:02.600Z,1.5
2023-04-11T03:20:06.679Z,1.7
2023-04-11T03:22:05.701Z,1.6
2023-04-11T03:24:02.550Z,1.5
2023-04-11T03:26:03.132Z,1.3
2023-04-11T03:28:03.446Z,2.0
2023-04-11T03:30:03.160Z,1.5
2023-04-11T03:32:03.415Z,1.3
2023-04-11T03:34:02.533Z,1.6
2023-04-11T03:36:02.553Z,1.4
2023-04-11T03:38:03.470Z,1.4
2023-04-11T03:40:03.469Z,1.3
2023-04-11T03:42:02.631Z,1.3
2023-04-11T03:44:03.034Z,1.2
2023-04-11T03:46:02.513Z,1.4
2023-04-11T03:48:02.672Z,1.2
2023-04-11T03:50:03.586Z,1.6
2023-04-11T03:52:02.800Z,1.5
2023-04-11T03:54:02.511Z,1.4
2023-04-11T03:56:03.653Z,1.3
2023-04-11T03:58:02.521Z,1.3
2023-04-11T04:00:05.434Z,1.4
2023-04-11T04:02:03.497Z,1.4
2023-04-11T04:04:03.623Z,1.5
2023-04-11T04:06:03.382Z,1.6
2023-04-11T04:08:03.231Z,1.3
2023-04-11T04:10:02.623Z,1.6
2023-04-11T04:12:02.614Z,1.8
2023-04-11T04:14:02.836Z,1.7
2023-04-11T04:16:04.004Z,1.7
2023-04-11T04:18:03.161Z,1.6
2023-04-11T04:20:03.547Z,1.8
2023-04-11T04:22:03.526Z,1.8
2023-04-11T04:24:04.551Z,2.6
2023-04-11T04:26:02.795Z,2.3
2023-04-11T04:28:03.551Z,2.4
2023-04-11T04:30:04.552Z,2.7
2023-04-11T04:32:02.912Z,3.0
2023-04-11T04:34:08.181Z,2.7
2023-04-11T04:36:03.699Z,2.9
2023-04-11T04:38:07.202Z,2.7
2023-04-11T04:40:07.331Z,2.9
2023-04-11T04:42:03.651Z,3.4
2023-04-11T04:44:04.779Z,2.4
2023-04-11T04:46:02.622Z,2.7
2023-04-11T04:48:02.744Z,2.3
2023-04-11T04:50:03.703Z,2.8
2023-04-11T04:52:03.211Z,2.9
2023-04-11T04:54:04.462Z,2.4
2023-04-11T04:56:03.625Z,2.0
2023-04-11T04:58:03.130Z,2.5
2023-04-11T05:00:06.151Z,2.7
2023-04-11T05:02:03.518Z,2.9
2023-04-11T05:04:03.111Z,2.6
2023-04-11T05:06:02.666Z,2.5
2023-04-11T05:08:02.787Z,2.2
2023-04-11T05:10:02.894Z,2.7
2023-04-11T05:12:03.969Z,2.9
2023-04-11T05:14:02.787Z,2.8
2023-04-11T05:16:02.683Z,3.2
2023-04-11T05:18:02.729Z,3.0
2023-04-11T05:20:05.186Z,3.6
2023-04-11T05:22:02.525Z,2.4
2023-04-11T05:24:02.559Z,2.4
2023-04-11T05:26:03.768Z,2.1
2023-04-11T05:28:02.843Z,2.7
2023-04-11T05:30:02.526Z,2.3
2023-04-11T05:32:02.941Z,2.1
2023-04-11T05:34:02.515Z,2.0
2023-04-11T05:36:02.664Z,2.1
2023-04-11T05:38:02.745Z,2.0
2023-04-11T05:40:03.279Z,1.8
2023-04-11T05:42:07.426Z,1.7
2023-04-11T05:44:03.207Z,1.9
2023-04-11T05:46:02.554Z,1.7
2023-04-11T05:48:03.670Z,1.6
2023-04-11T05:50:02.684Z,1.6
2023-04-11T05:52:02.701Z,1.6
2023-04-11T05:54:03.014Z,1.4
2023-04-11T05:56:03.047Z,1.6
2023-04-11T05:58:02.550Z,1.5
2023-04-11T06:00:12.710Z,1.8
2023-04-11T06:02:03.340Z,1.6
2023-04-11T06:04:03.188Z,1.7
2023-04-11T06:06:03.265Z,1.6
2023-04-11T06:08:04.711Z,1.8
2023-04-11T06:10:02.678Z,1.9
2023-04-11T06:12:03.161Z,1.8
2023-04-11T06:14:03.139Z,1.6
2023-04-11T06:16:05.221Z,1.7
2023-04-11T06:18:03.218Z,2.0
2023-04-11T06:20:06.120Z,2.0
2023-04-11T06:22:02.492Z,2.0
2023-04-11T06:24:07.583Z,2.0
2023-04-11T06:26:03.081Z,2.6
2023-04-11T06:28:02.898Z,2.2
2023-04-11T06:30:03.098Z,2.2
2023-04-11T06:32:03.605Z,2.0
2023-04-11T06:34:02.700Z,2.3
2023-04-11T06:36:04.934Z,2.6
2023-04-11T06:38:03.245Z,2.6
2023-04-11T06:40:04.889Z,3.1
2023-04-11T06:42:03.259Z,3.2
2023-04-11T06:44:03.149Z,2.2
2023-04-11T06:46:02.556Z,3.0
2023-04-11T06:48:02.616Z,2.8
2023-04-11T06:50:04.376Z,2.5
2023-04-11T06:52:03.211Z,3.0
2023-04-11T06:54:03.830Z,2.2
2023-04-11T06:56:02.805Z,2.0
2023-04-11T06:58:02.512Z,2.0
2023-04-11T07:00:06.220Z,2.3
2023-04-11T07:02:02.724Z,2.1
2023-04-11T07:04:02.831Z,2.1
2023-04-11T07:06:02.754Z,1.9
2023-04-11T07:08:02.898Z,1.8
2023-04-11T07:10:02.626Z,1.4
2023-04-11T07:12:02.772Z,1.5
2023-04-11T07:14:02.879Z,1.4
2023-04-11T07:16:02.612Z,1.3
2023-04-11T07:18:03.184Z,1.5
2023-04-11T07:20:06.000Z,1.6
2023-04-11T07:22:02.537Z,1.2
2023-04-11T07:24:03.383Z,1.2
2023-04-11T07:26:03.757Z,1.3
2023-04-11T07:28:07.745Z,1.5
2023-04-11T07:30:02.772Z,1.2
2023-04-11T07:32:02.832Z,1.0
2023-04-11T07:34:02.580Z,1.6
2023-04-11T07:36:03.082Z,1.3
2023-04-11T07:38:02.988Z,1.2
2023-04-11T07:40:05.873Z,1.5
2023-04-11T07:42:03.200Z,1.5
2023-04-11T07:44:03.144Z,1.6
2023-04-11T07:46:03.068Z,2.4
2023-04-11T07:48:02.743Z,1.6
2023-04-11T07:50:03.035Z,1.5
2023-04-11T07:52:02.774Z,1.7
2023-04-11T07:54:02.813Z,1.8
2023-04-11T07:56:04.415Z,1.7
2023-04-11T07:58:02.520Z,1.3
2023-04-11T08:00:03.855Z,1.5
2023-04-11T08:02:03.864Z,1.8
2023-04-11T08:04:03.232Z,1.5
2023-04-11T08:06:02.545Z,1.4
2023-04-11T08:08:03.006Z,1.4
2023-04-11T08:10:02.644Z,1.4
2023-04-11T08:12:02.891Z,1.4
2023-04-11T08:14:02.750Z,1.8
2023-04-11T08:16:03.678Z,1.4
2023-04-11T08:18:05.273Z,1.2
2023-04-11T08:20:04.337Z,1.2
2023-04-11T08:22:03.057Z,1.4
2023-04-11T08:24:02.717Z,1.6
2023-04-11T08:26:02.629Z,1.2
2023-04-11T08:28:03.804Z,1.5
2023-04-11T08:30:03.222Z,1.5
2023-04-11T08:32:03.498Z,1.5
2023-04-11T08:34:05.370Z,1.4
2023-04-11T08:36:02.576Z,1.3
2023-04-11T08:38:02.709Z,1.8
2023-04-11T08:40:06.166Z,2.6
2023-04-11T08:42:03.574Z,1.6
2023-04-11T08:44:03.128Z,1.5
2023-04-11T08:46:03.671Z,2.1
2023-04-11T08:48:02.528Z,2.3
2023-04-11T08:50:03.400Z,1.5
2023-04-11T08:52:03.705Z,1.7
2023-04-11T08:54:05.557Z,1.5
2023-04-11T08:56:04.368Z,1.3
2023-04-11T08:58:03.254Z,1.4
2023-04-11T09:00:10.636Z,2.3
2023-04-11T09:02:08.830Z,1.4
2023-04-11T09:04:04.729Z,2.0
2023-04-11T09:06:09.968Z,1.6
2023-04-11T09:08:04.475Z,1.8
2023-04-11T09:10:21.526Z,1.5
2023-04-11T09:12:03.359Z,1.4
2023-04-11T09:14:07.284Z,1.4
2023-04-11T09:16:06.720Z,1.5
2023-04-11T09:18:02.646Z,1.3
2023-04-11T09:20:16.460Z,1.5
2023-04-11T09:22:05.452Z,1.2
2023-04-11T09:24:15.908Z,1.7
2023-04-11T09:26:06.266Z,1.4
2023-04-11T09:28:10.840Z,1.4
2023-04-11T09:30:05.276Z,2.1
2023-04-11T09:32:02.786Z,1.4
2023-04-11T09:34:02.527Z,1.5
2023-04-11T09:36:20.323Z,1.4
2023-04-11T09:38:04.609Z,1.3
2023-04-11T09:40:05.652Z,1.3
2023-04-11T09:42:21.549Z,1.3
2023-04-11T09:44:03.387Z,1.4
2023-04-11T09:46:11.509Z,1.3
2023-04-11T09:48:03.185Z,1.4
2023-04-11T09:50:03.246Z,1.4
2023-04-11T09:52:05.231Z,1.4
2023-04-11T09:54:04.693Z,1.3
2023-04-11T09:56:04.220Z,1.5
2023-04-11T09:58:05.652Z,1.8
2023-04-11T10:00:12.119Z,1.4
2023-04-11T10:02:04.562Z,1.6
2023-04-11T10:04:03.762Z,1.2
2023-04-11T10:06:07.504Z,1.2
2023-04-11T10:08:08.447Z,1.4
2023-04-11T10:10:03.800Z,1.2
2023-04-11T10:12:02.644Z,1.6
2023-04-11T10:14:03.864Z,1.3
2023-04-11T10:16:07.959Z,1.6
2023-04-11T10:18:12.417Z,1.2
2023-04-11T10:20:12.474Z,1.3
2023-04-11T10:22:02.612Z,1.6
2023-04-11T10:24:10.407Z,1.3
2023-04-11T10:26:02.714Z,1.2
2023-04-11T10:28:04.138Z,1.3
2023-04-11T10:30:02.793Z,1.2
2023-04-11T10:32:11.370Z,1.1
2023-04-11T10:34:13.316Z,1.2
2023-04-11T10:36:05.369Z,1.4
2023-04-11T10:38:02.722Z,1.3
2023-04-11T10:40:09.233Z,1.1
2023-04-11T10:42:21.525Z,1.5
2023-04-11T10:44:15.023Z,1.1
2023-04-11T10:46:20.373Z,1.3
2023-04-11T10:48:07.354Z,1.4
2023-04-11T10:50:03.871Z,1.2
2023-04-11T10:52:21.363Z,1.2
2023-04-11T10:54:02.975Z,1.3
2023-04-11T10:56:03.646Z,1.1
2023-04-11T10:58:05.538Z,1.1
2023-04-11T11:00:12.758Z,1.2
2023-04-11T11:02:03.300Z,1.2
2023-04-11T11:04:03.995Z,1.3
2023-04-11T11:06:05.972Z,1.3
2023-04-11T11:08:03.046Z,1.4
2023-04-11T11:10:02.491Z,1.3
2023-04-11T11:12:06.369Z,1.2
2023-04-11T11:14:02.511Z,1.4
2023-04-11T11:16:02.748Z,1.1
2023-04-11T11:18:03.269Z,1.2
2023-04-11T11:20:09.463Z,1.4
2023-04-11T11:22:03.340Z,1.3
2023-04-11T11:24:03.633Z,1.4
2023-04-11T11:26:02.950Z,1.4
2023-04-11T11:28:05.452Z,1.4
2023-04-11T11:30:11.268Z,1.1
2023-04-11T11:32:03.186Z,1.2
2023-04-11T11:34:21.241Z,1.4
2023-04-11T11:36:04.269Z,1.2
2023-04-11T11:38:02.695Z,1.5
2023-04-11T11:40:08.857Z,1.4
2023-04-11T11:42:03.249Z,1.4
2023-04-11T11:44:04.007Z,1.5
2023-04-11T11:46:13.655Z,1.5
2023-04-11T11:48:02.643Z,1.2
2023-04-11T11:50:03.500Z,1.3
2023-04-11T11:52:02.974Z,1.2
2023-04-11T11:54:03.736Z,1.4
2023-04-11T11:56:14.923Z,1.6
2023-04-11T11:58:02.820Z,1.5
2023-04-11T12:00:05.640Z,1.4
2023-04-11T12:02:04.482Z,1.6
2023-04-11T12:04:07.085Z,1.4
2023-04-11T12:06:02.512Z,1.6
2023-04-11T12:08:04.206Z,1.5
2023-04-11T12:10:07.385Z,1.5
2023-04-11T12:12:02.690Z,1.9
2023-04-11T12:14:02.654Z,1.7
2023-04-11T12:16:03.216Z,1.5
2023-04-11T12:18:06.400Z,1.7
2023-04-11T12:20:05.997Z,1.7
2023-04-11T12:22:03.070Z,1.8
2023-04-11T12:24:02.507Z,1.9
2023-04-11T12:26:02.659Z,1.7
2023-04-11T12:28:02.716Z,1.7
2023-04-11T12:30:03.454Z,1.6
2023-04-11T12:32:03.878Z,1.7
2023-04-11T12:34:03.271Z,1.7
2023-04-11T12:36:03.067Z,1.7
2023-04-11T12:38:03.577Z,2.1
2023-04-11T12:40:08.715Z,2.5
2023-04-11T12:42:02.524Z,2.5
2023-04-11T12:44:03.488Z,2.0
2023-04-11T12:46:03.296Z,2.0
2023-04-11T12:48:02.542Z,1.7
2023-04-11T12:50:03.243Z,1.8
2023-04-11T12:52:02.704Z,1.8
2023-04-11T12:54:04.218Z,1.9
2023-04-11T12:56:03.357Z,1.8
2023-04-11T12:58:03.078Z,1.9
2023-04-11T13:00:06.390Z,1.8
2023-04-11T13:02:02.803Z,2.0
2023-04-11T13:04:03.938Z,1.8
2023-04-11T13:06:02.501Z,1.9
2023-04-11T13:08:03.252Z,1.6
2023-04-11T13:10:03.820Z,1.8
2023-04-11T13:12:02.548Z,2.0
2023-04-11T13:14:03.508Z,2.1
2023-04-11T13:16:02.960Z,1.5
2023-04-11T13:18:03.177Z,1.8
2023-04-11T13:20:06.691Z,2.2
2023-04-11T13:22:03.607Z,2.2
2023-04-11T13:24:03.147Z,2.0
2023-04-11T13:26:02.822Z,2.0
2023-04-11T13:28:02.952Z,1.9
2023-04-11T13:30:04.272Z,1.9
2023-04-11T13:32:02.624Z,1.7
2023-04-11T13:34:02.581Z,2.0
2023-04-11T13:36:03.433Z,1.8
2023-04-11T13:38:04.224Z,2.1
2023-04-11T13:40:06.979Z,2.3
2023-04-11T13:42:02.584Z,2.0
2023-04-11T13:44:02.548Z,2.1
2023-04-11T13:46:02.504Z,2.1
2023-04-11T13:48:03.355Z,2.5
2023-04-11T13:50:02.812Z,1.6
2023-04-11T13:52:02.900Z,1.5
2023-04-11T13:54:02.556Z,2.0
2023-04-11T13:56:03.391Z,1.8
2023-04-11T13:58:02.644Z,1.7
2023-04-11T14:00:06.204Z,1.9
2023-04-11T14:02:02.774Z,1.8
2023-04-11T14:04:03.277Z,1.8
2023-04-11T14:06:02.937Z,1.9
2023-04-11T14:08:03.617Z,2.3
2023-04-11T14:10:03.242Z,1.6
2023-04-11T14:12:02.527Z,1.7
2023-04-11T14:14:03.704Z,1.9
2023-04-11T14:16:08.642Z,1.7
2023-04-11T14:18:02.580Z,1.9
2023-04-11T14:20:04.587Z,1.7
2023-04-11T14:22:02.805Z,1.8
2023-04-11T14:24:02.700Z,1.7
2023-04-11T14:26:02.979Z,1.8
2023-04-11T14:28:02.844Z,1.7
2023-04-11T14:30:02.636Z,1.6
2023-04-11T14:32:02.526Z,1.7
2023-04-11T14:34:02.539Z,1.8
2023-04-11T14:36:02.521Z,1.8
2023-04-11T14:38:03.042Z,1.3
2023-04-11T14:40:04.824Z,1.6
2023-04-11T14:42:03.058Z,2.0
2023-04-11T14:44:02.522Z,1.6
2023-04-11T14:46:02.515Z,1.4
2023-04-11T14:48:02.810Z,1.7
2023-04-11T14:50:03.030Z,1.5
2023-04-11T14:52:02.897Z,1.3
2023-04-11T14:54:02.583Z,1.4
2023-04-11T14:56:04.386Z,1.4
2023-04-11T14:58:03.052Z,1.3
2023-04-11T15:00:05.964Z,1.9
2023-04-11T15:02:03.034Z,5.8
2023-04-11T15:04:02.953Z,4.7
2023-04-11T15:06:03.730Z,5.1
2023-04-11T15:08:02.964Z,4.8
2023-04-11T15:10:03.250Z,3.6
2023-04-11T15:12:03.247Z,3.1
2023-04-11T15:14:03.004Z,2.8
2023-04-11T15:16:04.001Z,1.8
2023-04-11T15:18:20.649Z,2.1
2023-04-11T15:20:04.661Z,3.1
2023-04-11T15:22:02.666Z,5.7
2023-04-11T15:24:06.733Z,7.1
2023-04-11T15:26:03.701Z,5.6
2023-04-11T15:28:02.696Z,6.1
2023-04-11T15:30:04.317Z,5.7
2023-04-11T15:32:03.371Z,9.4
2023-04-11T15:34:03.524Z,8.3
2023-04-11T15:36:02.736Z,7.7
2023-04-11T15:38:03.098Z,7.5
2023-04-11T15:40:05.366Z,6.2
2023-04-11T15:42:03.386Z,5.5
2023-04-11T15:44:02.517Z,5.0
2023-04-11T15:46:03.502Z,6.3
2023-04-11T15:48:03.586Z,8.9
2023-04-11T15:50:04.198Z,10.3
2023-04-11T15:52:02.697Z,8.4
2023-04-11T15:54:04.246Z,7.8
2023-04-11T15:56:05.578Z,6.7
2023-04-11T15:58:03.555Z,7.0
2023-04-11T16:00:08.098Z,6.1
2023-04-11T16:02:02.667Z,6.1
2023-04-11T16:04:03.252Z,6.2
2023-04-11T16:06:02.677Z,7.1
2023-04-11T16:08:03.067Z,9.0
2023-04-11T16:10:04.380Z,11.1
2023-04-11T16:12:15.935Z,10.0
2023-04-11T16:14:03.049Z,11.2
2023-04-11T16:16:02.819Z,12.5
2023-04-11T16:18:02.595Z,12.2
2023-04-11T16:20:06.955Z,11.1
2023-04-11T16:22:03.070Z,11.4
2023-04-11T16:24:02.689Z,11.4
2023-04-11T16:26:02.610Z,11.1
2023-04-11T16:28:02.926Z,11.9
2023-04-11T16:30:05.221Z,11.8
2023-04-11T16:32:03.386Z,11.7
2023-04-11T16:34:02.508Z,10.7
2023-04-11T16:36:02.759Z,11.7
2023-04-11T16:38:03.754Z,11.9
2023-04-11T16:40:06.135Z,12.8
2023-04-11T16:42:02.783Z,12.8
2023-04-11T16:44:05.336Z,12.6
2023-04-11T16:46:02.589Z,13.1
2023-04-11T16:48:02.778Z,13.6
2023-04-11T16:50:04.888Z,13.3
2023-04-11T16:52:03.525Z,13.3
2023-04-11T16:54:06.386Z,13.4
2023-04-11T16:56:03.181Z,13.4
2023-04-11T16:58:02.552Z,13.2
2023-04-11T17:00:07.738Z,12.9
2023-04-11T17:02:02.698Z,12.4
2023-04-11T17:04:03.008Z,11.7
2023-04-11T17:06:02.689Z,10.6
2023-04-11T17:08:02.529Z,10.0
2023-04-11T17:10:03.454Z,9.8
2023-04-11T17:12:03.368Z,10.1
2023-04-11T17:14:03.051Z,11.3
2023-04-11T17:16:03.404Z,10.9
2023-04-11T17:18:02.603Z,11.7
2023-04-11T17:20:08.896Z,12.1
2023-04-11T17:22:02.617Z,11.7
2023-04-11T17:24:02.611Z,12.4
2023-04-11T17:26:03.209Z,12.5
2023-04-11T17:28:03.616Z,13.0
2023-04-11T17:30:03.748Z,13.0
2023-04-11T17:32:03.514Z,13.3
2023-04-11T17:34:03.804Z,11.1
2023-04-11T17:36:04.596Z,8.4
2023-04-11T17:38:02.800Z,4.0
2023-04-11T17:40:11.092Z,3.3
2023-04-11T17:42:02.486Z,1.3
2023-04-11T17:44:03.100Z,3.3
2023-04-11T17:46:03.235Z,2.9
2023-04-11T17:48:08.696Z,2.2
2023-04-11T17:50:04.166Z,2.0
2023-04-11T17:52:02.573Z,2.3
2023-04-11T17:54:02.546Z,1.4
2023-04-11T17:56:03.943Z,1.0
2023-04-11T17:58:04.282Z,0.9
2023-04-11T18:00:06.167Z,0.9
2023-04-11T18:02:04.066Z,0.9
2023-04-11T18:04:06.841Z,1.0
2023-04-11T18:06:02.596Z,0.9
2023-04-11T18:08:04.054Z,0.8
2023-04-11T18:10:03.428Z,0.9
2023-04-11T18:12:02.946Z,0.9
2023-04-11T18:14:02.790Z,0.9
2023-04-11T18:16:02.734Z,0.8
2023-04-11T18:18:07.246Z,0.8
2023-04-11T18:20:08.317Z,0.9
2023-04-11T18:22:02.517Z,0.9
2023-04-11T18:24:03.676Z,0.9
2023-04-11T18:26:03.287Z,1.0
2023-04-11T18:28:02.766Z,1.0
2023-04-11T18:30:05.166Z,1.0
2023-04-11T18:32:02.568Z,0.9
2023-04-11T18:34:03.604Z,1.0
2023-04-11T18:36:03.425Z,1.0
2023-04-11T18:38:05.694Z,0.9
2023-04-11T18:40:10.852Z,1.0
2023-04-11T18:42:03.313Z,1.0
2023-04-11T18:44:03.263Z,0.9
2023-04-11T18:46:02.518Z,1.0
2023-04-11T18:48:03.026Z,0.9
2023-04-11T18:50:04.137Z,0.9
2023-04-11T18:52:03.537Z,1.1
2023-04-11T18:54:02.506Z,0.9
2023-04-11T18:56:03.276Z,1.0
2023-04-11T18:58:05.370Z,0.9
2023-04-11T19:02:03.169Z,1.2
2023-04-11T19:04:03.544Z,1.1
2023-04-11T19:06:02.643Z,1.0
2023-04-11T19:08:02.532Z,1.1
2023-04-11T19:10:02.912Z,1.1
2023-04-11T19:12:02.914Z,1.1
2023-04-11T19:14:02.939Z,1.1
2023-04-11T19:16:02.681Z,1.2
2023-04-11T19:18:02.577Z,1.3
2023-04-11T19:20:06.212Z,0.9
2023-04-11T19:22:03.320Z,1.1
2023-04-11T19:24:03.249Z,1.0
2023-04-11T19:26:02.667Z,1.5
2023-04-11T19:28:02.783Z,1.3
2023-04-11T19:30:02.943Z,1.2
2023-04-11T19:32:03.693Z,1.1
2023-04-11T19:34:04.113Z,1.1
2023-04-11T19:36:03.459Z,1.2
2023-04-11T19:38:05.229Z,1.1
2023-04-11T19:40:03.998Z,1.1
2023-04-11T19:42:03.886Z,1.2
2023-04-11T19:44:03.131Z,1.2
2023-04-11T19:46:02.831Z,1.2
2023-04-11T19:48:02.583Z,1.2
2023-04-11T19:50:02.649Z,1.4
2023-04-11T19:52:02.531Z,1.2
2023-04-11T19:54:03.561Z,1.2
2023-04-11T19:56:03.273Z,1.3
2023-04-11T19:58:03.072Z,1.2
2023-04-11T20:00:08.788Z,1.1
2023-04-11T20:02:02.676Z,1.2
2023-04-11T20:04:03.274Z,1.2
2023-04-11T20:06:05.599Z,1.3
2023-04-11T20:08:02.601Z,1.2
2023-04-11T20:10:03.653Z,1.0
2023-04-11T20:12:05.031Z,1.4
2023-04-11T20:14:02.781Z,1.4
2023-04-11T20:16:04.264Z,1.4
2023-04-11T20:18:02.923Z,1.2
2023-04-11T20:20:05.521Z,1.3
2023-04-11T20:22:02.745Z,1.2
2023-04-11T20:24:03.265Z,1.2
2023-04-11T20:26:02.590Z,1.2
2023-04-11T20:28:02.759Z,1.3
2023-04-11T20:30:07.139Z,1.4
2023-04-11T20:32:03.208Z,1.1
2023-04-11T20:34:02.707Z,1.3
2023-04-11T20:36:02.883Z,1.3
2023-04-11T20:38:02.784Z,1.3
2023-04-11T20:40:05.876Z,1.3
2023-04-11T20:42:02.560Z,1.5
2023-04-11T20:44:04.098Z,1.4
2023-04-11T20:46:07.904Z,1.3
2023-04-11T20:48:05.520Z,1.4
2023-04-11T20:50:04.815Z,1.2
2023-04-11T20:52:03.162Z,1.3
2023-04-11T20:54:02.483Z,1.3
2023-04-11T20:56:03.035Z,1.3
2023-04-11T20:58:03.237Z,1.2
2023-04-11T21:00:07.841Z,1.3
2023-04-11T21:02:02.745Z,1.4
2023-04-11T21:04:03.568Z,1.7
2023-04-11T21:06:06.832Z,1.2
2023-04-11T21:08:03.308Z,1.2
2023-04-11T21:10:04.352Z,1.1
2023-04-11T21:12:02.829Z,1.3
2023-04-11T21:14:02.705Z,1.4
2023-04-11T21:16:02.824Z,1.4
2023-04-11T21:18:04.294Z,1.0
2023-04-11T21:20:07.795Z,0.7
2023-04-11T21:22:03.778Z,0.7
2023-04-11T21:24:07.079Z,0.7
2023-04-11T21:26:03.302Z,0.7
2023-04-11T21:28:02.501Z,0.7
2023-04-11T21:30:02.610Z,0.8
2023-04-11T21:32:02.708Z,1.1
2023-04-11T21:34:02.682Z,4.2
2023-04-11T21:36:03.314Z,12.4
2023-04-11T21:38:02.758Z,12.9
2023-04-11T21:40:03.746Z,13.1
2023-04-11T21:42:02.499Z,13.6
2023-04-11T21:44:03.311Z,13.0
2023-04-11T21:46:02.741Z,13.1
2023-04-11T21:48:03.033Z,13.7
2023-04-11T21:50:02.699Z,13.9
2023-04-11T21:52:03.164Z,14.1
2023-04-11T21:54:03.968Z,14.4
2023-04-11T21:56:02.648Z,14.9
2023-04-11T21:58:03.428Z,14.7
2023-04-11T22:00:03.872Z,14.4
2023-04-11T22:02:03.645Z,13.4
2023-04-11T22:04:03.712Z,13.8
2023-04-11T22:06:03.099Z,12.9
2023-04-11T22:08:12.255Z,13.0
2023-04-11T22:10:08.588Z,13.0
2023-04-11T22:12:02.993Z,14.5
2023-04-11T22:14:02.976Z,13.1
2023-04-11T22:16:05.520Z,13.4
2023-04-11T22:18:03.043Z,11.2
2023-04-11T22:20:06.062Z,7.4
2023-04-11T22:22:04.989Z,2.9
2023-04-11T22:24:03.786Z,1.4
2023-04-11T22:26:02.624Z,1.1
2023-04-11T22:28:03.559Z,0.8
2023-04-11T22:30:02.731Z,0.9
2023-04-11T22:32:03.581Z,0.9
2023-04-11T22:34:03.171Z,1.1
2023-04-11T22:36:02.866Z,1.0
2023-04-11T22:38:03.338Z,1.1
2023-04-11T22:40:05.587Z,1.1
2023-04-11T22:42:03.277Z,1.0
2023-04-11T22:44:03.450Z,1.0
2023-04-11T22:46:03.282Z,1.0
2023-04-11T22:48:05.225Z,0.9
2023-04-11T22:50:03.062Z,1.1
2023-04-11T22:52:02.476Z,1.0
2023-04-11T22:54:02.865Z,1.0
2023-04-11T22:56:02.733Z,1.0
2023-04-11T22:58:03.971Z,1.1
2023-04-11T23:00:05.697Z,1.1
2023-04-11T23:02:02.676Z,1.1
2023-04-11T23:04:02.556Z,1.1
2023-04-11T23:06:02.726Z,1.1
2023-04-11T23:08:02.529Z,1.0
2023-04-11T23:10:05.141Z,1.4
2023-04-11T23:12:02.574Z,1.0
2023-04-11T23:14:02.544Z,1.2
2023-04-11T23:16:02.592Z,1.0
2023-04-11T23:18:02.916Z,1.1
2023-04-11T23:20:12.161Z,1.1
2023-04-11T23:22:02.752Z,1.1
2023-04-11T23:24:04.610Z,1.2
2023-04-11T23:26:03.985Z,1.1
2023-04-11T23:28:03.163Z,1.2
2023-04-11T23:30:02.961Z,1.2
2023-04-11T23:32:02.939Z,1.1
2023-04-11T23:34:03.095Z,1.2
2023-04-11T23:36:03.199Z,1.1
2023-04-11T23:38:04.058Z,1.2
2023-04-11T23:40:09.750Z,1.2
2023-04-11T23:42:02.566Z,1.3
2023-04-11T23:44:02.869Z,1.4
2023-04-11T23:46:02.612Z,1.2
2023-04-11T23:48:02.788Z,1.1
2023-04-11T23:50:04.020Z,1.2
2023-04-11T23:52:02.569Z,1.2
2023-04-11T23:54:02.533Z,1.4
2023-04-11T23:56:02.757Z,1.2
2023-04-11T23:58:03.515Z,1.1
